Time;durP1;ratioP1;P1;durP2;ratioP2;P2;SDS_P1;SDS_P2;PMS_P1;PMS_P2;Temp;Humidity;BMP_temperature;BMP_pressure;BME280_temperature;BME280_humidity;BME280_pressure;Samples;Min_cycle;Max_cycle;Signal;HPM_P1;HPM_P2
2023/07/12 00:01:10;;;;;;;;;;;23.10;71.50;;;;;;5024061;28;19917;-80
2023/07/12 00:03:36;;;;;;;;;;;22.40;73.60;;;;;;5022891;28;19917;-79
2023/07/12 00:06:01;;;;;;;;;;;22.70;73.10;;;;;;5025060;28;20413;-80
2023/07/12 00:08:28;;;;;;;;;;;22.60;74.00;;;;;;5006813;28;20381;-78
2023/07/12 00:10:55;;;;;;;;;;;22.30;76.10;;;;;;5006309;28;19920;-78
2023/07/12 00:13:20;;;;;;;;;;;22.20;76.60;;;;;;5024004;28;20123;-78
2023/07/12 00:15:47;;;;;;;;;;;22.50;75.30;;;;;;5024076;28;20432;-79
2023/07/12 00:18:14;;;;;;;;;;;22.80;74.20;;;;;;5005640;28;19913;-78
2023/07/12 00:20:40;;;;;;;;;;;22.80;73.50;;;;;;5000955;28;19920;-78
2023/07/12 00:23:07;;;;;;;;;;;22.80;73.10;;;;;;5022972;28;19921;-79
2023/07/12 00:25:33;;;;;;;;;;;22.70;72.80;;;;;;5003060;28;19917;-78
2023/07/12 00:27:59;;;;;;;;;;;22.60;72.10;;;;;;5023001;28;19966;-79
2023/07/12 00:30:29;;;;;;;;;;;22.60;72.50;;;;;;5006680;28;19913;-79
2023/07/12 00:32:56;;;;;;;;;;;22.60;73.00;;;;;;5023967;28;20041;-79
2023/07/12 00:35:22;;;;;;;;;;;22.70;73.00;;;;;;5006206;28;19909;-79
2023/07/12 00:37:49;;;;;;;;;;;22.80;72.70;;;;;;5023753;28;19914;-79
2023/07/12 00:40:19;;;;;;;;;;;22.50;73.60;;;;;;5005457;28;19913;-79
2023/07/12 00:42:45;;;;;;;;;;;22.40;74.70;;;;;;5005936;28;19924;-79
2023/07/12 00:45:12;;;;;;;;;;;22.30;75.00;;;;;;5002370;28;19918;-79
2023/07/12 00:47:38;;;;;;;;;;;22.30;75.20;;;;;;5021128;28;20671;-78
2023/07/12 00:50:15;;;;;;;;;;;22.40;74.90;;;;;;5023544;28;19925;-78
2023/07/12 00:52:41;;;;;;;;;;;22.40;74.90;;;;;;5005299;28;20326;-79
2023/07/12 00:55:25;;;;;;;;;;;22.50;74.60;;;;;;5005231;28;19963;-79
2023/07/12 00:57:51;;;;;;;;;;;22.40;74.50;;;;;;5022537;28;20648;-79
2023/07/12 01:00:17;;;;;;;;;;;22.10;75.40;;;;;;5022532;28;19928;-80
2023/07/12 01:02:44;;;;;;;;;;;22.30;74.80;;;;;;5005312;28;20019;-79
2023/07/12 01:05:11;;;;;;;;;;;22.30;74.90;;;;;;5021688;28;19944;-79
2023/07/12 01:07:36;;;;;;;;;;;22.40;74.40;;;;;;5018975;28;19971;-79
2023/07/12 01:10:02;;;;;;;;;;;22.50;74.80;;;;;;5004553;28;19917;-79
2023/07/12 01:12:28;;;;;;;;;;;22.50;74.40;;;;;;5022546;28;19917;-79
2023/07/12 01:14:53;;;;;;;;;;;22.40;74.40;;;;;;5021022;28;20036;-79
2023/07/12 01:17:20;;;;;;;;;;;22.50;74.80;;;;;;5003112;28;19957;-78
2023/07/12 01:19:45;;;;;;;;;;;22.40;74.40;;;;;;5022987;28;19913;-79
2023/07/12 01:22:11;;;;;;;;;;;22.30;74.80;;;;;;5021750;28;19931;-78
2023/07/12 01:24:36;;;;;;;;;;;22.30;74.40;;;;;;5022497;28;19917;-77
2023/07/12 01:27:13;;;;;;;;;;;22.40;75.00;;;;;;5005047;28;19963;-78
2023/07/12 01:29:39;;;;;;;;;;;22.30;74.70;;;;;;5004734;28;19913;-78
2023/07/12 01:32:05;;;;;;;;;;;22.30;75.00;;;;;;5022890;28;19917;-80
2023/07/12 01:34:31;;;;;;;;;;;22.40;75.40;;;;;;5021765;28;19921;-79
2023/07/12 01:36:57;;;;;;;;;;;22.40;75.10;;;;;;5004536;28;19917;-78
2023/07/12 01:39:24;;;;;;;;;;;22.40;75.20;;;;;;5020974;28;19923;-79
2023/07/12 01:41:50;;;;;;;;;;;22.30;75.50;;;;;;5022575;28;19917;-79
2023/07/12 01:44:15;;;;;;;;;;;22.20;75.90;;;;;;5021516;28;19928;-78
2023/07/12 01:46:41;;;;;;;;;;;22.10;76.60;;;;;;5004703;28;19921;-78
2023/07/12 01:49:06;;;;;;;;;;;22.20;75.80;;;;;;5022360;28;19979;-79
2023/07/12 01:51:32;;;;;;;;;;;22.30;75.70;;;;;;5003638;28;20296;-78
2023/07/12 01:53:58;;;;;;;;;;;22.30;75.80;;;;;;5020748;28;19995;-78
2023/07/12 01:56:24;;;;;;;;;;;22.30;75.20;;;;;;5022549;28;20000;-78
2023/07/12 01:58:49;;;;;;;;;;;22.30;75.10;;;;;;5021465;28;19920;-78
2023/07/12 02:01:15;;;;;;;;;;;22.10;75.60;;;;;;5021686;28;19968;-78
2023/07/12 02:03:40;;;;;;;;;;;22.20;75.80;;;;;;5002862;28;19968;-79
2023/07/12 02:06:06;;;;;;;;;;;22.10;75.70;;;;;;5004347;28;19917;-78
2023/07/12 02:08:32;;;;;;;;;;;22.10;76.40;;;;;;5022381;28;21083;-78
2023/07/12 02:10:57;;;;;;;;;;;22.20;76.20;;;;;;5001290;28;20003;-78
2023/07/12 02:13:41;;;;;;;;;;;22.20;76.80;;;;;;5020364;28;20163;-78
2023/07/12 02:16:07;;;;;;;;;;;22.00;76.60;;;;;;5020488;28;19917;-77
2023/07/12 02:18:32;;;;;;;;;;;21.80;77.90;;;;;;5002923;28;19924;-78
2023/07/12 02:20:58;;;;;;;;;;;21.60;80.00;;;;;;5022062;28;19917;-77
2023/07/12 02:23:42;;;;;;;;;;;21.80;80.00;;;;;;5021686;28;20020;-78
2023/07/12 02:26:07;;;;;;;;;;;22.00;79.10;;;;;;5017326;28;19925;-78
2023/07/12 02:28:33;;;;;;;;;;;21.90;79.30;;;;;;5021565;28;19917;-78
2023/07/12 02:31:17;;;;;;;;;;;21.90;79.10;;;;;;5003924;28;20012;-79
2023/07/12 02:33:42;;;;;;;;;;;21.70;80.30;;;;;;5003897;28;19917;-78
2023/07/12 02:36:08;;;;;;;;;;;21.60;79.50;;;;;;5021118;28;20414;-78
2023/07/12 02:38:34;;;;;;;;;;;21.50;80.40;;;;;;5003349;28;20397;-78
2023/07/12 02:41:00;;;;;;;;;;;21.40;80.30;;;;;;5003766;28;20351;-79
2023/07/12 02:43:26;;;;;;;;;;;21.60;79.70;;;;;;5003551;28;20003;-79
2023/07/12 02:45:51;;;;;;;;;;;21.60;80.30;;;;;;5018799;28;20273;-79
2023/07/12 02:48:18;;;;;;;;;;;21.80;79.40;;;;;;5003286;28;19921;-79
2023/07/12 02:50:43;;;;;;;;;;;21.80;79.20;;;;;;5021047;28;19929;-78
2023/07/12 02:53:16;;;;;;;;;;;21.70;79.60;;;;;;5021737;28;19924;-79
2023/07/12 02:55:42;;;;;;;;;;;21.60;80.30;;;;;;4997455;28;19913;-79
2023/07/12 02:58:07;;;;;;;;;;;21.50;80.20;;;;;;5021762;28;19913;-78
2023/07/12 03:00:33;;;;;;;;;;;21.50;79.70;;;;;;5020443;28;19913;-78
2023/07/12 03:02:58;;;;;;;;;;;21.50;80.00;;;;;;5016920;28;20384;-78
2023/07/12 03:05:24;;;;;;;;;;;21.20;80.60;;;;;;5021560;28;19917;-78
2023/07/12 03:07:51;;;;;;;;;;;21.30;80.80;;;;;;5021374;28;19935;-78
2023/07/12 03:10:17;;;;;;;;;;;21.30;80.90;;;;;;5021164;28;19967;-78
2023/07/12 03:12:43;;;;;;;;;;;21.30;80.60;;;;;;5021483;28;19914;-78
2023/07/12 03:15:08;;;;;;;;;;;21.40;79.70;;;;;;5002135;28;20000;-78
2023/07/12 03:17:34;;;;;;;;;;;21.30;80.60;;;;;;5003907;28;19913;-78
2023/07/12 03:19:59;;;;;;;;;;;21.10;80.90;;;;;;5020641;28;20373;-78
2023/07/12 03:22:25;;;;;;;;;;;21.00;81.90;;;;;;5003148;28;20655;-78
2023/07/12 03:24:50;;;;;;;;;;;21.10;81.70;;;;;;5003678;28;20284;-78
2023/07/12 03:27:16;;;;;;;;;;;21.30;80.70;;;;;;5003657;28;20051;-78
2023/07/12 03:29:42;;;;;;;;;;;21.50;79.80;;;;;;5020908;28;19983;-79
2023/07/12 03:32:07;;;;;;;;;;;21.30;80.20;;;;;;5023151;28;19913;-78
2023/07/12 03:34:33;;;;;;;;;;;21.10;80.80;;;;;;5006615;28;19912;-78
2023/07/12 03:36:59;;;;;;;;;;;21.10;81.00;;;;;;5024966;28;19913;-78
2023/07/12 03:39:24;;;;;;;;;;;21.10;80.80;;;;;;5006714;28;19920;-80
2023/07/12 03:41:50;;;;;;;;;;;21.10;80.70;;;;;;5006732;28;19917;-79
2023/07/12 03:44:15;;;;;;;;;;;20.80;81.60;;;;;;5023473;28;20423;-79
2023/07/12 03:46:41;;;;;;;;;;;20.80;82.40;;;;;;5025005;28;19960;-78
2023/07/12 03:49:06;;;;;;;;;;;21.10;81.50;;;;;;5023088;28;20603;-78
2023/07/12 03:51:32;;;;;;;;;;;21.10;81.10;;;;;;5024283;28;19925;-78
2023/07/12 03:53:58;;;;;;;;;;;21.10;81.20;;;;;;5023072;28;19963;-78
2023/07/12 03:56:23;;;;;;;;;;;21.20;80.80;;;;;;5025124;28;19919;-78
2023/07/12 03:58:49;;;;;;;;;;;21.20;80.80;;;;;;5024053;28;19913;-78
2023/07/12 04:01:14;;;;;;;;;;;21.00;81.00;;;;;;5007204;28;19913;-80
2023/07/12 04:03:40;;;;;;;;;;;21.10;80.70;;;;;;5006389;28;19921;-80
2023/07/12 04:06:07;;;;;;;;;;;20.80;81.80;;;;;;5007188;28;19913;-79
2023/07/12 04:08:32;;;;;;;;;;;20.60;83.10;;;;;;5024429;28;19913;-78
2023/07/12 04:10:58;;;;;;;;;;;20.90;81.90;;;;;;5022453;28;19920;-79
2023/07/12 04:13:25;;;;;;;;;;;21.00;81.40;;;;;;5024011;28;19920;-78
2023/07/12 04:15:54;;;;;;;;;;;21.00;81.20;;;;;;5022067;28;20549;-78
2023/07/12 04:18:20;;;;;;;;;;;20.80;81.60;;;;;;5024226;28;19944;-79
2023/07/12 04:20:46;;;;;;;;;;;20.70;81.60;;;;;;5023769;28;20439;-78
2023/07/12 04:23:11;;;;;;;;;;;20.80;81.40;;;;;;5006147;28;19924;-78
2023/07/12 04:25:37;;;;;;;;;;;20.90;81.60;;;;;;5023481;28;19913;-78
2023/07/12 04:28:02;;;;;;;;;;;20.70;82.10;;;;;;5005520;28;19920;-78
2023/07/12 04:30:28;;;;;;;;;;;20.80;81.30;;;;;;5003809;28;20447;-78
2023/07/12 04:32:54;;;;;;;;;;;20.90;80.90;;;;;;5023676;28;19913;-78
2023/07/12 04:35:19;;;;;;;;;;;20.90;81.30;;;;;;5023038;28;19919;-78
2023/07/12 04:37:46;;;;;;;;;;;20.90;81.40;;;;;;5005590;28;20007;-78
2023/07/12 04:40:12;;;;;;;;;;;21.00;80.90;;;;;;5005360;28;20003;-78
2023/07/12 04:42:37;;;;;;;;;;;21.10;80.60;;;;;;5021700;28;19963;-76
2023/07/12 04:45:03;;;;;;;;;;;20.80;81.70;;;;;;5004874;28;20391;-76
2023/07/12 04:47:29;;;;;;;;;;;20.90;82.00;;;;;;5022598;28;20016;-78
2023/07/12 04:49:54;;;;;;;;;;;20.90;83.20;;;;;;5022736;28;19972;-76
2023/07/12 04:52:20;;;;;;;;;;;21.00;82.70;;;;;;5022228;28;19917;-76
2023/07/12 04:54:45;;;;;;;;;;;21.10;82.70;;;;;;5022744;28;19963;-76
2023/07/12 04:57:11;;;;;;;;;;;21.20;82.00;;;;;;5019596;28;20577;-77
2023/07/12 04:59:36;;;;;;;;;;;21.50;81.00;;;;;;5023187;28;20000;-76
2023/07/12 05:02:03;;;;;;;;;;;21.60;79.90;;;;;;5022852;28;19917;-77
2023/07/12 05:04:28;;;;;;;;;;;21.40;79.70;;;;;;5030417;28;20714;-76
2023/07/12 05:06:54;;;;;;;;;;;21.40;79.20;;;;;;5028990;28;19938;-77
2023/07/12 05:09:20;;;;;;;;;;;21.50;79.40;;;;;;5004816;28;19917;-77
2023/07/12 05:11:47;;;;;;;;;;;21.40;79.20;;;;;;5027411;28;19936;-77
2023/07/12 05:14:12;;;;;;;;;;;21.40;79.40;;;;;;5022374;28;19921;-77
2023/07/12 05:16:38;;;;;;;;;;;21.30;79.20;;;;;;5004472;28;19924;-77
2023/07/12 05:19:03;;;;;;;;;;;21.20;79.90;;;;;;5005457;28;20390;-77
2023/07/12 05:21:29;;;;;;;;;;;21.30;79.90;;;;;;5019658;28;20569;-77
2023/07/12 05:23:54;;;;;;;;;;;21.40;79.30;;;;;;5004964;28;20573;-77
2023/07/12 05:26:20;;;;;;;;;;;21.50;79.10;;;;;;5030172;28;20396;-78
2023/07/12 05:28:45;;;;;;;;;;;21.40;78.60;;;;;;5027662;28;19917;-79
2023/07/12 05:31:12;;;;;;;;;;;21.20;79.10;;;;;;5012254;28;19924;-78
2023/07/12 05:33:42;;;;;;;;;;;21.20;79.40;;;;;;5021628;28;20407;-79
2023/07/12 05:36:07;;;;;;;;;;;21.20;80.10;;;;;;5004645;28;19948;-80
2023/07/12 05:38:33;;;;;;;;;;;21.30;79.30;;;;;;5016025;28;19972;-78
2023/07/12 05:40:59;;;;;;;;;;;21.30;78.20;;;;;;5021880;28;19967;-78
2023/07/12 05:43:25;;;;;;;;;;;21.40;77.20;;;;;;5033824;28;19925;-78
2023/07/12 05:45:51;;;;;;;;;;;21.70;77.30;;;;;;5039307;28;19970;-79
2023/07/12 05:48:16;;;;;;;;;;;21.90;76.30;;;;;;5006641;28;19917;-79
2023/07/12 05:50:42;;;;;;;;;;;22.20;74.80;;;;;;5026540;28;19925;-79
2023/07/12 05:53:08;;;;;;;;;;;23.00;73.10;;;;;;5004464;28;20306;-78
2023/07/12 05:55:36;;;;;;;;;;;23.80;69.70;;;;;;5028030;28;20570;-79
2023/07/12 05:58:02;;;;;;;;;;;25.90;63.50;;;;;;5008758;28;19979;-78
2023/07/12 06:00:27;;;;;;;;;;;27.00;61.60;;;;;;5013491;28;20711;-78
2023/07/12 06:02:53;;;;;;;;;;;27.80;59.30;;;;;;5022933;28;20866;-78
2023/07/12 06:05:19;;;;;;;;;;;28.10;57.50;;;;;;5017179;28;20299;-79
2023/07/12 06:07:45;;;;;;;;;;;28.50;57.40;;;;;;5032201;28;20446;-80
2023/07/12 06:10:11;;;;;;;;;;;28.60;57.10;;;;;;5028410;28;20016;-79
2023/07/12 06:12:38;;;;;;;;;;;28.40;56.30;;;;;;5005449;28;20016;-79
2023/07/12 06:15:04;;;;;;;;;;;25.80;61.20;;;;;;5025161;28;19912;-78
2023/07/12 06:17:29;;;;;;;;;;;26.70;61.50;;;;;;5002946;28;19940;-80
2023/07/12 06:19:55;;;;;;;;;;;26.80;60.50;;;;;;5022225;28;20380;-81
2023/07/12 06:22:21;;;;;;;;;;;26.20;62.40;;;;;;5004367;28;19921;-80
2023/07/12 06:24:46;;;;;;;;;;;25.40;65.00;;;;;;5022042;28;19969;-79
2023/07/12 06:27:13;;;;;;;;;;;25.70;64.40;;;;;;5021367;28;19920;-81
2023/07/12 06:29:39;;;;;;;;;;;25.90;63.50;;;;;;5003748;28;19913;-82
2023/07/12 06:32:05;;;;;;;;;;;25.90;64.80;;;;;;5004014;28;19913;-81
2023/07/12 06:34:31;;;;;;;;;;;27.70;58.90;;;;;;5021419;28;19923;-84
2023/07/12 06:36:56;;;;;;;;;;;26.60;60.70;;;;;;5003754;28;20336;-82
2023/07/12 06:39:22;;;;;;;;;;;26.10;62.80;;;;;;5016535;28;19917;-81
2023/07/12 06:41:47;;;;;;;;;;;25.10;62.30;;;;;;5021427;28;20701;-81
2023/07/12 06:44:13;;;;;;;;;;;24.60;65.20;;;;;;5019180;28;20014;-82
2023/07/12 06:46:39;;;;;;;;;;;23.90;66.70;;;;;;5002708;28;20008;-81
2023/07/12 06:49:04;;;;;;;;;;;23.60;67.70;;;;;;5019027;28;19992;-81
2023/07/12 06:51:30;;;;;;;;;;;23.50;66.60;;;;;;5021185;28;20059;-82
2023/07/12 06:53:55;;;;;;;;;;;23.50;66.30;;;;;;5019508;28;19917;-81
2023/07/12 06:56:21;;;;;;;;;;;23.60;65.90;;;;;;5003599;28;19924;-79
2023/07/12 06:58:46;;;;;;;;;;;23.60;67.00;;;;;;5017175;28;19921;-81
2023/07/12 07:01:12;;;;;;;;;;;23.50;66.70;;;;;;4995355;28;19956;-82
2023/07/12 07:03:37;;;;;;;;;;;23.50;65.70;;;;;;5020328;28;20449;-82
2023/07/12 07:06:03;;;;;;;;;;;23.50;67.10;;;;;;5022082;28;19913;-81
2023/07/12 07:08:29;;;;;;;;;;;23.50;67.70;;;;;;5007174;28;19913;-82
2023/07/12 07:10:56;;;;;;;;;;;23.30;70.50;;;;;;5025398;28;19913;-82
2023/07/12 07:13:22;;;;;;;;;;;23.50;70.20;;;;;;5023502;28;19924;-81
2023/07/12 07:15:48;;;;;;;;;;;23.60;70.10;;;;;;5023474;28;20007;-82
2023/07/12 07:18:14;;;;;;;;;;;23.70;70.10;;;;;;5007117;28;19913;-81
2023/07/12 07:20:40;;;;;;;;;;;23.90;69.70;;;;;;5006525;28;19917;-82
2023/07/12 07:23:06;;;;;;;;;;;24.00;68.30;;;;;;5024481;28;20442;-82
2023/07/12 07:25:31;;;;;;;;;;;23.80;69.90;;;;;;5018921;28;20502;-81
2023/07/12 07:27:57;;;;;;;;;;;24.10;69.30;;;;;;5018310;28;20391;-82
2023/07/12 07:30:22;;;;;;;;;;;24.40;68.60;;;;;;5016701;28;19917;-81
2023/07/12 07:32:53;;;;;;;;;;;24.40;68.70;;;;;;5017041;28;19920;-82
2023/07/12 07:35:19;;;;;;;;;;;24.70;67.60;;;;;;5003889;28;19963;-82
2023/07/12 07:37:46;;;;;;;;;;;24.50;67.70;;;;;;5020529;28;20300;-84
2023/07/12 07:40:14;;;;;;;;;;;25.60;64.70;;;;;;5023042;28;20479;-83
2023/07/12 07:42:40;;;;;;;;;;;28.80;59.60;;;;;;5003763;28;19924;-83
2023/07/12 07:45:06;;;;;;;;;;;31.30;53.30;;;;;;5021759;28;19921;-82
2023/07/12 07:47:31;;;;;;;;;;;31.50;52.00;;;;;;5022317;28;20020;-82
2023/07/12 07:49:57;;;;;;;;;;;29.90;51.30;;;;;;5006241;28;19932;-83
2023/07/12 07:52:23;;;;;;;;;;;34.30;48.80;;;;;;5024286;28;20399;-83
2023/07/12 07:54:49;;;;;;;;;;;33.30;45.10;;;;;;5005361;28;19917;-83
2023/07/12 07:57:14;;;;;;;;;;;33.60;47.40;;;;;;5006072;28;19978;-82
2023/07/12 07:59:40;;;;;;;;;;;35.80;44.30;;;;;;5006788;28;19920;-84
2023/07/12 08:02:08;;;;;;;;;;;37.80;40.50;;;;;;5006709;28;19920;-82
2023/07/12 08:04:34;;;;;;;;;;;37.90;40.30;;;;;;5024834;28;20012;-82
2023/07/12 08:06:59;;;;;;;;;;;37.90;41.10;;;;;;5007116;28;20016;-82
2023/07/12 08:09:25;;;;;;;;;;;37.70;40.80;;;;;;5025313;28;19921;-82
2023/07/12 08:11:50;;;;;;;;;;;34.30;41.50;;;;;;5023403;28;19967;-83
2023/07/12 08:14:18;;;;;;;;;;;32.60;43.70;;;;;;5005121;28;20560;-82
2023/07/12 08:16:43;;;;;;;;;;;35.00;42.50;;;;;;5022487;28;19924;-83
2023/07/12 08:19:09;;;;;;;;;;;37.40;42.20;;;;;;4999648;28;19909;-82
2023/07/12 08:21:34;;;;;;;;;;;37.90;40.30;;;;;;5023839;28;19919;-82
2023/07/12 08:24:00;;;;;;;;;;;38.60;42.30;;;;;;5006089;28;19921;-83
2023/07/12 08:26:25;;;;;;;;;;;39.20;40.60;;;;;;5024295;28;19919;-83
2023/07/12 08:28:51;;;;;;;;;;;37.10;40.10;;;;;;5006127;28;19924;-82
2023/07/12 08:31:16;;;;;;;;;;;32.80;42.60;;;;;;5022277;28;19923;-81
2023/07/12 08:33:44;;;;;;;;;;;32.30;45.20;;;;;;5021982;28;19913;-81
2023/07/12 08:36:10;;;;;;;;;;;33.90;45.10;;;;;;5024116;28;19916;-82
2023/07/12 08:38:36;;;;;;;;;;;31.00;47.10;;;;;;5023638;28;19950;-82
2023/07/12 08:41:07;;;;;;;;;;;31.30;49.40;;;;;;5024107;28;20063;-81
2023/07/12 08:43:33;;;;;;;;;;;36.40;42.20;;;;;;5021046;28;19921;-83
2023/07/12 08:46:13;;;;;;;;;;;36.50;39.40;;;;;;5014540;28;20027;-82
2023/07/12 08:48:39;;;;;;;;;;;37.90;41.10;;;;;;5018551;28;19948;-82
2023/07/12 08:51:15;;;;;;;;;;;38.70;36.50;;;;;;5021937;28;20253;-82
2023/07/12 08:53:41;;;;;;;;;;;39.40;36.50;;;;;;5002219;28;19921;-82
2023/07/12 08:56:11;;;;;;;;;;;39.90;39.30;;;;;;5017238;28;19914;-83
2023/07/12 08:58:40;;;;;;;;;;;40.40;36.50;;;;;;5015572;28;19920;-82
2023/07/12 09:01:08;;;;;;;;;;;39.80;37.30;;;;;;5022542;28;19917;-84
2023/07/12 09:03:33;;;;;;;;;;;39.30;38.80;;;;;;5004815;28;19931;-84
2023/07/12 09:05:59;;;;;;;;;;;36.00;37.30;;;;;;5023304;28;19909;-83
2023/07/12 09:08:31;;;;;;;;;;;33.00;44.00;;;;;;5004834;28;19970;-82
2023/07/12 09:10:57;;;;;;;;;;;31.00;45.40;;;;;;5003266;28;19917;-83
2023/07/12 09:13:33;;;;;;;;;;;31.60;45.80;;;;;;5022584;28;19913;-83
2023/07/12 09:15:59;;;;;;;;;;;31.50;47.70;;;;;;5004385;28;19917;-82
2023/07/12 09:18:29;;;;;;;;;;;33.40;47.30;;;;;;5022847;28;19920;-82
2023/07/12 09:20:56;;;;;;;;;;;38.00;39.80;;;;;;5026485;28;19917;-83
2023/07/12 09:23:22;;;;;;;;;;;38.40;36.40;;;;;;5021542;28;19929;-83
2023/07/12 09:25:53;;;;;;;;;;;37.00;38.90;;;;;;5004178;28;19920;-82
2023/07/12 09:28:18;;;;;;;;;;;37.10;40.50;;;;;;4999792;28;19917;-83
2023/07/12 09:30:44;;;;;;;;;;;38.80;37.20;;;;;;5003474;28;19928;-82
2023/07/12 09:33:17;;;;;;;;;;;38.50;36.00;;;;;;5021225;28;19917;-82
2023/07/12 09:35:45;;;;;;;;;;;40.10;38.40;;;;;;5016671;28;19917;-81
2023/07/12 09:38:13;;;;;;;;;;;35.70;39.40;;;;;;5004775;28;19963;-83
2023/07/12 09:40:40;;;;;;;;;;;32.80;44.00;;;;;;5018397;28;19960;-83
2023/07/12 09:43:14;;;;;;;;;;;34.50;42.10;;;;;;5022082;28;21021;-83
2023/07/12 09:45:41;;;;;;;;;;;35.30;37.10;;;;;;5016332;28;19924;-82
2023/07/12 09:48:13;;;;;;;;;;;35.00;39.80;;;;;;5002218;28;19921;-82
2023/07/12 09:50:49;;;;;;;;;;;32.90;44.10;;;;;;5013032;28;20030;-82
2023/07/12 09:53:38;;;;;;;;;;;36.20;41.40;;;;;;4992573;28;19953;-83
2023/07/12 09:56:16;;;;;;;;;;;37.70;36.80;;;;;;4986433;28;19914;-82
2023/07/12 09:59:08;;;;;;;;;;;36.30;38.60;;;;;;4992759;28;20615;-82
2023/07/12 10:01:36;;;;;;;;;;;36.70;38.40;;;;;;4998484;28;19968;-83
2023/07/12 10:04:24;;;;;;;;;;;34.90;37.00;;;;;;4998096;28;19948;-82
2023/07/12 10:06:50;;;;;;;;;;;36.00;39.60;;;;;;4994979;28;19964;-81
2023/07/12 10:09:16;;;;;;;;;;;36.90;36.90;;;;;;5001325;28;19913;-82
2023/07/12 10:11:57;;;;;;;;;;;39.20;36.50;;;;;;5001433;28;20447;-82
2023/07/12 10:14:26;;;;;;;;;;;39.10;33.70;;;;;;5011624;28;20329;-82
2023/07/12 10:16:53;;;;;;;;;;;38.40;35.10;;;;;;4998741;28;20830;-81
2023/07/12 10:19:38;;;;;;;;;;;36.40;36.50;;;;;;5000017;28;20393;-82
2023/07/12 10:22:05;;;;;;;;;;;34.90;40.00;;;;;;4996867;28;19913;-81
2023/07/12 10:24:34;;;;;;;;;;;33.30;41.40;;;;;;5000522;28;19928;-81
2023/07/12 10:27:01;;;;;;;;;;;33.10;41.80;;;;;;5000934;28;19916;-81
2023/07/12 10:29:39;;;;;;;;;;;33.20;40.30;;;;;;5000822;28;19910;-82
2023/07/12 10:32:05;;;;;;;;;;;32.70;42.00;;;;;;4987971;28;19924;-82
2023/07/12 10:34:48;;;;;;;;;;;32.30;44.80;;;;;;4995929;28;19918;-85
2023/07/12 10:37:23;;;;;;;;;;;31.10;46.20;;;;;;5000519;28;19921;-83
2023/07/12 10:39:49;;;;;;;;;;;30.80;44.80;;;;;;4998315;28;20439;-84
2023/07/12 10:42:39;;;;;;;;;;;30.60;44.20;;;;;;5006009;28;19914;-82
2023/07/12 10:45:06;;;;;;;;;;;30.80;46.00;;;;;;5006021;28;19933;-82
2023/07/12 10:47:35;;;;;;;;;;;32.10;45.80;;;;;;5013952;28;19926;-83
2023/07/12 10:50:02;;;;;;;;;;;32.00;43.80;;;;;;5007764;28;19925;-82
2023/07/12 10:52:27;;;;;;;;;;;32.00;45.50;;;;;;5021663;28;19925;-82
2023/07/12 10:55:02;;;;;;;;;;;31.50;46.00;;;;;;5018424;28;20392;-82
2023/07/12 10:57:35;;;;;;;;;;;31.20;46.50;;;;;;5012528;28;19940;-83
2023/07/12 11:00:03;;;;;;;;;;;30.60;48.30;;;;;;5019495;28;19936;-82
2023/07/12 11:02:32;;;;;;;;;;;29.70;49.40;;;;;;5025276;28;19913;-83
2023/07/12 11:04:59;;;;;;;;;;;29.80;48.40;;;;;;5024983;28;19928;-83
2023/07/12 11:07:25;;;;;;;;;;;30.20;48.50;;;;;;5025335;28;19920;-82
2023/07/12 11:09:51;;;;;;;;;;;30.70;49.70;;;;;;5019526;28;19913;-83
2023/07/12 11:12:31;;;;;;;;;;;31.00;48.20;;;;;;5025847;28;19917;-82
2023/07/12 11:15:03;;;;;;;;;;;31.00;47.10;;;;;;5023622;28;19928;-82
2023/07/12 11:17:29;;;;;;;;;;;30.70;45.00;;;;;;5016849;28;20276;-82
2023/07/12 11:20:15;;;;;;;;;;;30.80;46.40;;;;;;5001819;28;19978;-83
2023/07/12 11:22:57;;;;;;;;;;;30.40;46.90;;;;;;4997753;28;19917;-79
2023/07/12 11:25:24;;;;;;;;;;;30.40;45.70;;;;;;5017580;28;19921;-83
2023/07/12 11:28:04;;;;;;;;;;;30.80;46.40;;;;;;5018861;28;19921;-82
2023/07/12 11:30:36;;;;;;;;;;;30.70;48.30;;;;;;5018142;28;20361;-83
2023/07/12 11:33:08;;;;;;;;;;;30.70;48.30;;;;;;5020768;28;19921;-82
2023/07/12 11:35:44;;;;;;;;;;;30.70;50.20;;;;;;5010311;28;19917;-81
2023/07/12 11:38:13;;;;;;;;;;;31.30;49.00;;;;;;5016475;28;19924;-81
2023/07/12 11:40:39;;;;;;;;;;;30.90;47.80;;;;;;5020095;28;20760;-82
2023/07/12 11:43:21;;;;;;;;;;;30.10;48.60;;;;;;5021361;28;19955;-82
2023/07/12 11:45:47;;;;;;;;;;;30.80;50.70;;;;;;5022564;28;20392;-82
2023/07/12 11:48:13;;;;;;;;;;;31.40;49.10;;;;;;5006498;28;20458;-80
2023/07/12 11:50:39;;;;;;;;;;;30.70;48.70;;;;;;5019569;28;19975;-81
2023/07/12 11:53:05;;;;;;;;;;;30.40;48.40;;;;;;4995333;28;20004;-82
2023/07/12 11:55:32;;;;;;;;;;;30.80;49.40;;;;;;5023767;28;20004;-82
2023/07/12 11:57:57;;;;;;;;;;;30.60;48.90;;;;;;5019495;28;19920;-82
2023/07/12 12:00:28;;;;;;;;;;;30.20;49.90;;;;;;5022996;28;19913;-81
2023/07/12 12:02:55;;;;;;;;;;;30.10;50.50;;;;;;5023271;28;20310;-81
2023/07/12 12:05:25;;;;;;;;;;;31.10;50.50;;;;;;5006098;28;19917;-82
2023/07/12 12:07:55;;;;;;;;;;;29.80;49.90;;;;;;5007154;28;19959;-82
2023/07/12 12:10:34;;;;;;;;;;;29.80;49.70;;;;;;5006940;28;20389;-82
2023/07/12 12:12:59;;;;;;;;;;;29.00;51.00;;;;;;5006846;28;19913;-82
2023/07/12 12:15:26;;;;;;;;;;;29.40;53.10;;;;;;5024104;28;19951;-82
2023/07/12 12:17:53;;;;;;;;;;;29.30;52.00;;;;;;5006648;28;19913;-81
2023/07/12 12:20:26;;;;;;;;;;;29.00;53.30;;;;;;5023696;28;19914;-81
2023/07/12 12:22:56;;;;;;;;;;;29.90;50.40;;;;;;5023717;28;19959;-82
2023/07/12 12:25:23;;;;;;;;;;;30.60;49.10;;;;;;5023279;28;20247;-82
2023/07/12 12:27:50;;;;;;;;;;;30.40;48.40;;;;;;5024125;28;19913;-81
2023/07/12 12:30:15;;;;;;;;;;;30.90;51.40;;;;;;5022146;28;19948;-81
2023/07/12 12:32:41;;;;;;;;;;;29.90;50.80;;;;;;5021370;28;19992;-82
2023/07/12 12:35:17;;;;;;;;;;;29.30;52.20;;;;;;5005258;28;19913;-81
2023/07/12 12:37:52;;;;;;;;;;;29.80;50.90;;;;;;5023613;28;19913;-82
2023/07/12 12:40:18;;;;;;;;;;;30.20;51.70;;;;;;5021035;28;19947;-82
2023/07/12 12:42:58;;;;;;;;;;;30.30;50.60;;;;;;5022978;28;19913;-81
2023/07/12 12:45:26;;;;;;;;;;;29.90;52.50;;;;;;5023197;28;20587;-82
2023/07/12 12:47:51;;;;;;;;;;;29.90;48.00;;;;;;5023725;28;19925;-81
2023/07/12 12:50:18;;;;;;;;;;;30.00;51.30;;;;;;5023125;28;19929;-81
2023/07/12 12:52:44;;;;;;;;;;;30.00;48.90;;;;;;5023332;28;19917;-81
2023/07/12 12:55:11;;;;;;;;;;;30.10;51.50;;;;;;5005206;28;19913;-81
2023/07/12 12:57:37;;;;;;;;;;;30.40;50.60;;;;;;5022942;28;20003;-82
2023/07/12 13:00:04;;;;;;;;;;;30.10;49.20;;;;;;5005109;28;19959;-82
2023/07/12 13:02:30;;;;;;;;;;;29.90;49.80;;;;;;5005457;28;20031;-82
2023/07/12 13:04:56;;;;;;;;;;;29.90;48.90;;;;;;5020764;28;19921;-82
2023/07/12 13:07:29;;;;;;;;;;;29.90;48.50;;;;;;5022858;28;19913;-82
2023/07/12 13:09:55;;;;;;;;;;;30.00;50.00;;;;;;5005066;28;20812;-81
2023/07/12 13:12:23;;;;;;;;;;;30.30;51.20;;;;;;5004595;28;19918;-82
2023/07/12 13:14:48;;;;;;;;;;;30.50;48.90;;;;;;5020402;28;19959;-81
2023/07/12 13:17:15;;;;;;;;;;;30.80;51.40;;;;;;5005694;28;19913;-82
2023/07/12 13:19:41;;;;;;;;;;;30.30;48.30;;;;;;5004271;28;20695;-81
2023/07/12 13:22:10;;;;;;;;;;;29.70;54.50;;;;;;5004118;28;19913;-81
2023/07/12 13:24:36;;;;;;;;;;;29.20;54.10;;;;;;5022320;28;20020;-82
2023/07/12 13:27:01;;;;;;;;;;;28.00;52.60;;;;;;5021400;28;19917;-81
2023/07/12 13:29:27;;;;;;;;;;;28.30;53.90;;;;;;5022245;28;20032;-82
2023/07/12 13:31:52;;;;;;;;;;;28.70;52.40;;;;;;5002997;28;19920;-81
2023/07/12 13:34:18;;;;;;;;;;;28.80;52.30;;;;;;5020831;28;20017;-81
2023/07/12 13:36:47;;;;;;;;;;;28.50;53.20;;;;;;5021271;28;20723;-81
2023/07/12 13:39:16;;;;;;;;;;;29.10;51.90;;;;;;5004510;28;20704;-82
2023/07/12 13:41:42;;;;;;;;;;;29.10;51.30;;;;;;5020528;28;19923;-82
2023/07/12 13:44:10;;;;;;;;;;;28.80;55.50;;;;;;5021174;28;19957;-82
2023/07/12 13:46:35;;;;;;;;;;;28.40;56.30;;;;;;5022253;28;20447;-81
2023/07/12 13:49:03;;;;;;;;;;;28.10;56.30;;;;;;5021906;28;20016;-81
2023/07/12 13:51:28;;;;;;;;;;;29.00;58.30;;;;;;5003673;28;19931;-82
2023/07/12 13:53:54;;;;;;;;;;;28.70;57.00;;;;;;5022718;28;19913;-81
2023/07/12 13:56:19;;;;;;;;;;;29.00;56.90;;;;;;5022441;28;19938;-81
2023/07/12 13:58:45;;;;;;;;;;;29.00;56.80;;;;;;5003971;28;19920;-83
2023/07/12 14:01:12;;;;;;;;;;;28.90;53.10;;;;;;5004425;28;19913;-82
2023/07/12 14:03:37;;;;;;;;;;;28.60;52.90;;;;;;5004722;28;19917;-82
2023/07/12 14:06:06;;;;;;;;;;;28.10;55.50;;;;;;5004735;28;19983;-81
2023/07/12 14:08:31;;;;;;;;;;;27.20;58.50;;;;;;5021315;28;20000;-82
2023/07/12 14:10:57;;;;;;;;;;;27.40;60.10;;;;;;5002010;28;20693;-82
2023/07/12 14:13:23;;;;;;;;;;;27.40;60.30;;;;;;5021104;28;19963;-81
2023/07/12 14:15:49;;;;;;;;;;;27.60;57.40;;;;;;5003895;28;19948;-81
2023/07/12 14:18:15;;;;;;;;;;;27.70;58.50;;;;;;5004356;28;19913;-81